logo
Search for airport 
image banner adimage banner adimage banner ad
image banner ad

ED2129 - Ulm Universitaetsklinikum

Located in Ulm, Germany

ICAO - , IATA -

Data provided by Airmate  

General information

Coordinates: N48°25'21" E9°57'5"
Elevation is 2096 feet MSL.
 
View others Airports in Baden-Württemberg

Operational data

Special qualification required
Current time UTC:
Current local time:
Weather at : ETHL - Laupheim ( 23 km )
METAR: ETHL 231720Z 31005KT 9999 FEW012 SCT043 BKN065 23/15 Q1019 BLU BLU
TAF: TAF ETHL 231604Z 2317/2402 25012KT 9999 NSW BKN040 BKN070 TEMPO 2317/2321 28012KT 8000 -RA SCT015 BKN030 TEMPO 2321/2323 27010G30KT 3000 TSRA BKN012 BKN015CB BKN070
View NOTAMs / SUP AIP / TFR affecting this airport [VIEW]
Communications frequencies: [VIEW]

Runways:

Airport contact information

Address: Ulm Germany

Satellite view of ED2129